X  ZavřítMETAR data      LKPD Pardubice Airport

Teplota

1°C Teplota

-2°C Rosný bod

81% Vlhkost



Vítr

10 KM/H

 6 MPH

 3 M/S

 5 KTS



300°
ZSZ směr
Současné podmínky

Jasno Jasno
Tlak vzduchu 1004.92 (hPa) - 29.68 (in)
Dohlednost 6.2 (mi) - 10 (km)
Letiště
Kód letiště LKPD

Lokace Pardubice Airport 80 (km)

Metar:
LKPD 251900Z 30005KT CAVOK 01/M02 Q1005 NOSIG

Čas: 25-01-2021 20:00